Nichinan Maru — JM6277 — position and weather

sailwx.info

Track history (hours):
 
Tides and Currents Weather Stations Pressure Air Temp Water Temp Dewpoint Dewpoint Depression Visibility Wind Speed Wind Dir Waves Ship Positions

Nichinan Maru

Last reported at 2018-Jun-15 19:38 UTC. Time now 2018-Jun-19 12:44 UTC.
Position N 33°44' E 134°44'.

Length 67 m; draft 3.8 m.

Type: Ship (hazmat cat A). MMSI: 431500254.

Date/timePositionNaut miles runAvg speedWind from/ knotsBaromVisibWave heightAir tempDewpointWater temp
2018-Jun-15 19:38N 33°44' E 134°44'111.8
2018-Jun-15 19:30N 33°45' E 134°45'8 8.0
2018-Jun-15 18:30N 33°53' E 134°47'4 0.2
2018-Jun-14 20:35N 33°53' E 134°43'210.5
2018-Jun-14 20:22N 33°54' E 134°45'410.6
2018-Jun-14 19:59N 33°58' E 134°48'611.1
2018-Jun-14 19:24N 34°04' E 134°51'411.1
2018-Jun-14 19:00N 34°07' E 134°54'611.7
2018-Jun-14 18:30N 34°13' E 134°57'612.3
2018-Jun-14 18:00N 34°19' E 134°59'510.4
2018-Jun-14 17:31N 34°24' E 135°00'611.3
2018-Jun-14 17:00N 34°29' E 135°01'611.4
2018-Jun-14 16:30N 34°35' E 135°03'510.0
2018-Jun-14 16:00N 34°36' E 134°57'612.0
2018-Jun-14 15:30N 34°38' E 134°50'610.9
2018-Jun-14 14:58N 34°39' E 134°43'510.4
2018-Jun-14 14:29N 34°41' E 134°37'  
Track history (hours):
 
Tides and Currents Weather Stations Pressure Air Temp Water Temp Dewpoint Dewpoint Depression Visibility Wind Speed Wind Dir Waves Ship Positions

Nichinan Maru

Last reported at 2018-Jun-15 19:38 UTC. Time now 2018-Jun-19 12:44 UTC.
Position N 33°44' E 134°44'.

Length 67 m; draft 3.8 m.

Type: Ship (hazmat cat A). MMSI: 431500254.

Date/timePositionNaut miles runAvg speedWind from/ knotsBaromVisibWave heightAir tempDewpointWater temp
2018-Jun-15 19:38N 33°44' E 134°44'111.8
2018-Jun-15 19:30N 33°45' E 134°45'8 8.0
2018-Jun-15 18:30N 33°53' E 134°47'4 0.2
2018-Jun-14 20:35N 33°53' E 134°43'210.5
2018-Jun-14 20:22N 33°54' E 134°45'410.6
2018-Jun-14 19:59N 33°58' E 134°48'611.1
2018-Jun-14 19:24N 34°04' E 134°51'411.1
2018-Jun-14 19:00N 34°07' E 134°54'611.7
2018-Jun-14 18:30N 34°13' E 134°57'612.3
2018-Jun-14 18:00N 34°19' E 134°59'510.4
2018-Jun-14 17:31N 34°24' E 135°00'611.3
2018-Jun-14 17:00N 34°29' E 135°01'611.4
2018-Jun-14 16:30N 34°35' E 135°03'510.0
2018-Jun-14 16:00N 34°36' E 134°57'612.0
2018-Jun-14 15:30N 34°38' E 134°50'610.9
2018-Jun-14 14:58N 34°39' E 134°43'510.4
2018-Jun-14 14:29N 34°41' E 134°37'  

Dump ship's entire track history